GFA505 OMDB-OBBI
Flight info
| Callsign | GFA505 |
|---|---|
| Flight time | 1h 16m |
| Altitude | 28000 |
| Route | NABIX3F NABIX P699 ORMID M556 ORDIG ORDIG1 |
| Aircraft | A320/M-SDE3FGHIRWY/LB1 |
Departure
| Time | 2026-04-22 09:37 |
|---|---|
| Airport | Dubai International Airport (OMDB) |
Arrival
| Time | 2026-04-22 10:54 |
|---|---|
| Airport | Bahrain International Airport (OBBI) |
| Time | Latitude | Longitude | Altitude | Speed | Heading |
|---|---|---|---|---|---|
| 2026-04-22 09:27 | 25.25878 | 55.34808 | 8 ft | 2 kts | 175° |
| 2026-04-22 09:27 | 25.25894 | 55.34806 | 10 ft | 2 kts | 163° |
| 2026-04-22 09:28 | 25.25909 | 55.34800 | 11 ft | 2 kts | 149° |
| 2026-04-22 09:28 | 25.25923 | 55.34789 | 11 ft | 2 kts | 133° |
| 2026-04-22 09:28 | 25.25931 | 55.34778 | 10 ft | 1 kts | 122° |
| 2026-04-22 09:28 | 25.25933 | 55.34775 | 11 ft | 0 kts | 120° |
| 2026-04-22 09:30 | 25.25927 | 55.34786 | 12 ft | 6 kts | 121° |
| 2026-04-22 09:30 | 25.25906 | 55.34825 | 11 ft | 5 kts | 121° |
| 2026-04-22 09:31 | 25.25884 | 55.34865 | 10 ft | 11 kts | 121° |
| 2026-04-22 09:31 | 25.25826 | 55.34968 | 10 ft | 16 kts | 122° |
| 2026-04-22 09:31 | 25.25790 | 55.35034 | 10 ft | 15 kts | 121° |
| 2026-04-22 09:31 | 25.25729 | 55.35174 | 10 ft | 14 kts | 88° |
| 2026-04-22 09:32 | 25.25801 | 55.35240 | 10 ft | 14 kts | 31° |
| 2026-04-22 09:32 | 25.25906 | 55.35309 | 10 ft | 20 kts | 31° |
| 2026-04-22 09:32 | 25.25992 | 55.35436 | 10 ft | 24 kts | 77° |
| 2026-04-22 09:32 | 25.25965 | 55.35573 | 9 ft | 32 kts | 118° |
| 2026-04-22 09:33 | 25.25841 | 55.35803 | 9 ft | 35 kts | 121° |
| 2026-04-22 09:33 | 25.25710 | 55.36034 | 9 ft | 36 kts | 122° |
| 2026-04-22 09:33 | 25.25581 | 55.36268 | 9 ft | 36 kts | 121° |
| 2026-04-22 09:33 | 25.25450 | 55.36503 | 9 ft | 36 kts | 121° |
| 2026-04-22 09:34 | 25.25322 | 55.36742 | 9 ft | 36 kts | 122° |
| 2026-04-22 09:34 | 25.25188 | 55.36974 | 9 ft | 36 kts | 121° |
| 2026-04-22 09:34 | 25.25058 | 55.37212 | 10 ft | 36 kts | 120° |
| 2026-04-22 09:35 | 25.24795 | 55.37688 | 11 ft | 36 kts | 121° |
| 2026-04-22 09:35 | 25.24716 | 55.37857 | 11 ft | 16 kts | 81° |
| 2026-04-22 09:35 | 25.24770 | 55.37905 | 11 ft | 4 kts | 32° |
| 2026-04-22 09:35 | 25.24785 | 55.37916 | 11 ft | 3 kts | 33° |
| 2026-04-22 09:36 | 25.24801 | 55.37928 | 13 ft | 2 kts | 33° |
| 2026-04-22 09:36 | 25.24813 | 55.37936 | 12 ft | 5 kts | 32° |
| 2026-04-22 09:36 | 25.24872 | 55.37912 | 11 ft | 15 kts | 306° |
| 2026-04-22 09:36 | 25.24985 | 55.37709 | 11 ft | 62 kts | 301° |
| 2026-04-22 09:37 | 25.25330 | 55.37091 | 11 ft | 124 kts | 301° |
| 2026-04-22 09:37 | 25.25871 | 55.36110 | 11 ft | 172 kts | 299° |
| 2026-04-22 09:37 | 25.26526 | 55.34926 | 426 ft | 179 kts | 306° |
| 2026-04-22 09:37 | 25.27179 | 55.33789 | 1167 ft | 175 kts | 304° |
| 2026-04-22 09:38 | 25.27826 | 55.32642 | 1830 ft | 179 kts | 301° |
| 2026-04-22 09:38 | 25.28501 | 55.31420 | 2252 ft | 192 kts | 300° |
| 2026-04-22 09:38 | 25.29115 | 55.30096 | 2813 ft | 195 kts | 282° |
| 2026-04-22 09:38 | 25.29148 | 55.28606 | 3384 ft | 195 kts | 251° |
| 2026-04-22 09:39 | 25.28622 | 55.27219 | 3863 ft | 197 kts | 242° |
| 2026-04-22 09:39 | 25.28030 | 55.25841 | 4459 ft | 199 kts | 242° |
| 2026-04-22 09:39 | 25.27448 | 55.24477 | 5095 ft | 195 kts | 242° |
| 2026-04-22 09:39 | 25.26865 | 55.23116 | 5611 ft | 198 kts | 242° |
| 2026-04-22 09:40 | 25.26260 | 55.21702 | 6054 ft | 203 kts | 242° |
| 2026-04-22 09:40 | 25.25654 | 55.20280 | 6396 ft | 217 kts | 242° |
| 2026-04-22 09:40 | 25.24982 | 55.18707 | 6749 ft | 232 kts | 242° |
| 2026-04-22 09:40 | 25.24295 | 55.17073 | 7374 ft | 236 kts | 245° |
| 2026-04-22 09:41 | 25.23874 | 55.15266 | 7859 ft | 254 kts | 258° |
| 2026-04-22 09:41 | 25.23596 | 55.13253 | 8202 ft | 273 kts | 259° |
| 2026-04-22 09:41 | 25.23316 | 55.11152 | 8846 ft | 278 kts | 259° |
| 2026-04-22 09:41 | 25.23037 | 55.09049 | 9579 ft | 281 kts | 259° |
| 2026-04-22 09:42 | 25.22749 | 55.06892 | 10126 ft | 292 kts | 259° |
| 2026-04-22 09:42 | 25.22435 | 55.04582 | 10295 ft | 315 kts | 259° |
| 2026-04-22 09:42 | 25.22096 | 55.02125 | 10608 ft | 330 kts | 260° |
| 2026-04-22 09:42 | 25.21746 | 54.99590 | 11206 ft | 335 kts | 260° |
| 2026-04-22 09:43 | 25.21394 | 54.97025 | 11867 ft | 339 kts | 260° |
| 2026-04-22 09:43 | 25.21050 | 54.94469 | 12549 ft | 342 kts | 262° |
| 2026-04-22 09:43 | 25.20785 | 54.91846 | 13238 ft | 345 kts | 264° |
| 2026-04-22 09:43 | 25.20590 | 54.89193 | 13884 ft | 348 kts | 265° |
| 2026-04-22 09:44 | 25.20425 | 54.86515 | 14492 ft | 351 kts | 266° |
| 2026-04-22 09:44 | 25.20266 | 54.83819 | 15097 ft | 353 kts | 266° |
| 2026-04-22 09:44 | 25.20098 | 54.81100 | 15699 ft | 356 kts | 266° |
| 2026-04-22 09:44 | 25.19918 | 54.78360 | 16306 ft | 359 kts | 265° |
| 2026-04-22 09:45 | 25.19838 | 54.75601 | 16898 ft | 361 kts | 273° |
| 2026-04-22 09:45 | 25.20004 | 54.72821 | 17493 ft | 364 kts | 274° |
| 2026-04-22 09:45 | 25.20171 | 54.70019 | 18093 ft | 367 kts | 274° |
| 2026-04-22 09:45 | 25.20334 | 54.67200 | 18608 ft | 369 kts | 273° |
| 2026-04-22 09:46 | 25.20493 | 54.64393 | 19121 ft | 372 kts | 273° |
| 2026-04-22 09:46 | 25.20655 | 54.61534 | 19646 ft | 374 kts | 273° |
| 2026-04-22 09:46 | 25.20819 | 54.58651 | 20168 ft | 377 kts | 273° |
| 2026-04-22 09:46 | 25.20982 | 54.55751 | 20692 ft | 379 kts | 272° |
| 2026-04-22 09:47 | 25.21235 | 54.52840 | 21203 ft | 383 kts | 279° |
| 2026-04-22 09:47 | 25.21898 | 54.49971 | 21704 ft | 386 kts | 284° |
| 2026-04-22 09:47 | 25.22631 | 54.47104 | 22200 ft | 389 kts | 283° |
| 2026-04-22 09:47 | 25.23363 | 54.44212 | 22686 ft | 392 kts | 283° |
| 2026-04-22 09:48 | 25.24088 | 54.41333 | 23152 ft | 395 kts | 283° |
| 2026-04-22 09:48 | 25.24827 | 54.38390 | 23571 ft | 397 kts | 283° |
| 2026-04-22 09:48 | 25.25565 | 54.35436 | 23966 ft | 399 kts | 283° |
| 2026-04-22 09:48 | 25.26307 | 54.32463 | 24363 ft | 401 kts | 283° |
| 2026-04-22 09:49 | 25.27044 | 54.29522 | 24754 ft | 402 kts | 283° |
| 2026-04-22 09:49 | 25.27791 | 54.26535 | 25140 ft | 404 kts | 283° |
| 2026-04-22 09:49 | 25.28537 | 54.23534 | 25518 ft | 405 kts | 283° |
| 2026-04-22 09:49 | 25.29281 | 54.20519 | 25897 ft | 407 kts | 283° |
| 2026-04-22 09:50 | 25.30024 | 54.17497 | 26266 ft | 408 kts | 283° |
| 2026-04-22 09:50 | 25.30773 | 54.14460 | 26636 ft | 410 kts | 283° |
| 2026-04-22 09:50 | 25.31509 | 54.11408 | 27005 ft | 411 kts | 282° |
| 2026-04-22 09:50 | 25.32193 | 54.08338 | 27366 ft | 412 kts | 281° |
| 2026-04-22 09:51 | 25.32834 | 54.05281 | 27695 ft | 413 kts | 281° |
| 2026-04-22 09:51 | 25.33465 | 54.02189 | 27797 ft | 408 kts | 280° |
| 2026-04-22 09:51 | 25.34079 | 53.99174 | 27816 ft | 397 kts | 281° |
| 2026-04-22 09:51 | 25.34687 | 53.96213 | 27815 ft | 393 kts | 281° |
| 2026-04-22 09:52 | 25.35299 | 53.93269 | 27814 ft | 392 kts | 281° |
| 2026-04-22 09:52 | 25.35915 | 53.90328 | 27818 ft | 391 kts | 281° |
| 2026-04-22 09:52 | 25.36533 | 53.87401 | 27818 ft | 391 kts | 281° |
| 2026-04-22 09:52 | 25.37144 | 53.84511 | 27819 ft | 390 kts | 281° |
| 2026-04-22 09:53 | 25.37760 | 53.81587 | 27825 ft | 390 kts | 281° |
| 2026-04-22 09:53 | 25.38376 | 53.78657 | 27823 ft | 390 kts | 281° |
| 2026-04-22 09:53 | 25.38988 | 53.75734 | 27822 ft | 390 kts | 281° |
| 2026-04-22 09:53 | 25.39600 | 53.72815 | 27827 ft | 389 kts | 281° |
| 2026-04-22 09:54 | 25.40212 | 53.69898 | 27820 ft | 389 kts | 281° |
| 2026-04-22 09:54 | 25.40824 | 53.66982 | 27826 ft | 389 kts | 281° |
| 2026-04-22 09:54 | 25.41438 | 53.64061 | 27827 ft | 389 kts | 281° |
| 2026-04-22 09:54 | 25.42047 | 53.61147 | 27833 ft | 388 kts | 281° |
| 2026-04-22 09:55 | 25.42649 | 53.58267 | 27830 ft | 388 kts | 281° |
| 2026-04-22 09:55 | 25.43257 | 53.55355 | 27833 ft | 388 kts | 281° |
| 2026-04-22 09:55 | 25.43864 | 53.52446 | 27839 ft | 388 kts | 281° |
| 2026-04-22 09:55 | 25.44470 | 53.49537 | 27839 ft | 387 kts | 281° |
| 2026-04-22 09:56 | 25.45076 | 53.46626 | 27840 ft | 387 kts | 281° |
| 2026-04-22 09:56 | 25.45679 | 53.43725 | 27838 ft | 387 kts | 281° |
| 2026-04-22 09:56 | 25.46274 | 53.40855 | 27838 ft | 386 kts | 281° |
| 2026-04-22 09:56 | 25.46876 | 53.37948 | 27837 ft | 386 kts | 281° |
| 2026-04-22 09:57 | 25.47477 | 53.35051 | 27836 ft | 386 kts | 281° |
| 2026-04-22 09:57 | 25.48074 | 53.32160 | 27842 ft | 385 kts | 281° |
| 2026-04-22 09:57 | 25.48670 | 53.29261 | 27839 ft | 385 kts | 281° |
| 2026-04-22 09:57 | 25.49266 | 53.26365 | 27836 ft | 385 kts | 281° |
| 2026-04-22 09:58 | 25.49855 | 53.23511 | 27839 ft | 385 kts | 281° |
| 2026-04-22 09:58 | 25.50446 | 53.20627 | 27837 ft | 385 kts | 281° |
| 2026-04-22 09:58 | 25.51038 | 53.17735 | 27838 ft | 384 kts | 281° |
| 2026-04-22 09:58 | 25.51629 | 53.14848 | 27838 ft | 384 kts | 281° |
| 2026-04-22 09:59 | 25.52218 | 53.11969 | 27837 ft | 384 kts | 281° |
| 2026-04-22 09:59 | 25.52809 | 53.09083 | 27837 ft | 384 kts | 281° |
| 2026-04-22 09:59 | 25.53399 | 53.06201 | 27835 ft | 384 kts | 281° |
| 2026-04-22 09:59 | 25.53986 | 53.03317 | 27837 ft | 383 kts | 281° |
| 2026-04-22 10:00 | 25.54571 | 53.00429 | 27838 ft | 383 kts | 281° |
| 2026-04-22 10:00 | 25.55152 | 52.97554 | 27837 ft | 383 kts | 281° |
| 2026-04-22 10:00 | 25.55726 | 52.94712 | 27837 ft | 383 kts | 281° |
| 2026-04-22 10:00 | 25.56359 | 52.91843 | 27835 ft | 384 kts | 285° |
| 2026-04-22 10:01 | 25.57393 | 52.89105 | 27840 ft | 387 kts | 295° |
| 2026-04-22 10:01 | 25.58684 | 52.86479 | 27836 ft | 387 kts | 295° |
| 2026-04-22 10:01 | 25.59968 | 52.83863 | 27839 ft | 387 kts | 295° |
| 2026-04-22 10:01 | 25.61250 | 52.81242 | 27837 ft | 386 kts | 295° |
| 2026-04-22 10:02 | 25.62530 | 52.78616 | 27836 ft | 386 kts | 295° |
| 2026-04-22 10:02 | 25.63790 | 52.76033 | 27835 ft | 386 kts | 295° |
| 2026-04-22 10:02 | 25.65067 | 52.73412 | 27834 ft | 386 kts | 295° |
| 2026-04-22 10:02 | 25.66345 | 52.70782 | 27832 ft | 386 kts | 295° |
| 2026-04-22 10:03 | 25.67622 | 52.68152 | 27837 ft | 386 kts | 295° |
| 2026-04-22 10:03 | 25.68900 | 52.65526 | 27836 ft | 386 kts | 295° |
| 2026-04-22 10:03 | 25.70159 | 52.62938 | 27836 ft | 386 kts | 295° |
| 2026-04-22 10:03 | 25.71433 | 52.60319 | 27837 ft | 386 kts | 295° |
| 2026-04-22 10:04 | 25.72704 | 52.57700 | 27837 ft | 386 kts | 295° |
| 2026-04-22 10:04 | 25.73978 | 52.55073 | 27834 ft | 386 kts | 295° |
| 2026-04-22 10:04 | 25.75250 | 52.52452 | 27835 ft | 386 kts | 295° |
| 2026-04-22 10:04 | 25.76520 | 52.49830 | 27836 ft | 385 kts | 294° |
| 2026-04-22 10:05 | 25.77767 | 52.47192 | 27835 ft | 385 kts | 294° |
| 2026-04-22 10:05 | 25.78995 | 52.44549 | 27835 ft | 385 kts | 294° |
| 2026-04-22 10:05 | 25.80200 | 52.41928 | 27836 ft | 386 kts | 294° |
| 2026-04-22 10:05 | 25.81420 | 52.39273 | 27837 ft | 386 kts | 294° |
| 2026-04-22 10:06 | 25.82640 | 52.36623 | 27836 ft | 386 kts | 294° |
| 2026-04-22 10:06 | 25.83866 | 52.33969 | 27839 ft | 386 kts | 294° |
| 2026-04-22 10:06 | 25.85094 | 52.31316 | 27837 ft | 386 kts | 294° |
| 2026-04-22 10:06 | 25.86330 | 52.28668 | 27838 ft | 387 kts | 295° |
| 2026-04-22 10:07 | 25.87840 | 52.26172 | 27833 ft | 391 kts | 305° |
| 2026-04-22 10:07 | 25.89674 | 52.23919 | 27834 ft | 393 kts | 308° |
| 2026-04-22 10:07 | 25.91533 | 52.21687 | 27832 ft | 393 kts | 308° |
| 2026-04-22 10:07 | 25.93393 | 52.19452 | 27832 ft | 394 kts | 308° |
| 2026-04-22 10:08 | 25.95228 | 52.17243 | 27832 ft | 394 kts | 308° |
| 2026-04-22 10:08 | 25.97106 | 52.14979 | 27829 ft | 394 kts | 308° |
| 2026-04-22 10:08 | 25.98938 | 52.12761 | 27837 ft | 394 kts | 308° |
| 2026-04-22 10:08 | 26.00792 | 52.10510 | 27831 ft | 394 kts | 308° |
| 2026-04-22 10:09 | 26.02644 | 52.08261 | 27833 ft | 394 kts | 308° |
| 2026-04-22 10:09 | 26.04500 | 52.06011 | 27836 ft | 395 kts | 308° |
| 2026-04-22 10:09 | 26.06359 | 52.03764 | 27839 ft | 395 kts | 308° |
| 2026-04-22 10:09 | 26.08220 | 52.01516 | 27838 ft | 395 kts | 308° |
| 2026-04-22 10:10 | 26.10081 | 51.99265 | 27841 ft | 395 kts | 308° |
| 2026-04-22 10:10 | 26.11920 | 51.97040 | 27840 ft | 395 kts | 308° |
| 2026-04-22 10:10 | 26.13780 | 51.94782 | 27839 ft | 395 kts | 308° |
| 2026-04-22 10:10 | 26.15640 | 51.92522 | 27839 ft | 395 kts | 308° |
| 2026-04-22 10:11 | 26.17502 | 51.90262 | 27845 ft | 395 kts | 308° |
| 2026-04-22 10:11 | 26.19365 | 51.88004 | 27837 ft | 395 kts | 308° |
| 2026-04-22 10:11 | 26.21224 | 51.85747 | 27838 ft | 395 kts | 307° |
| 2026-04-22 10:11 | 26.23058 | 51.83513 | 27845 ft | 395 kts | 307° |
| 2026-04-22 10:12 | 26.24831 | 51.81186 | 27842 ft | 392 kts | 301° |
| 2026-04-22 10:12 | 26.26218 | 51.78600 | 27841 ft | 387 kts | 292° |
| 2026-04-22 10:12 | 26.27415 | 51.75904 | 27842 ft | 387 kts | 292° |
| 2026-04-22 10:12 | 26.28612 | 51.73214 | 27845 ft | 387 kts | 292° |
| 2026-04-22 10:13 | 26.29797 | 51.70553 | 27845 ft | 387 kts | 292° |
| 2026-04-22 10:13 | 26.30993 | 51.67866 | 27844 ft | 387 kts | 292° |
| 2026-04-22 10:13 | 26.32192 | 51.65176 | 27842 ft | 387 kts | 292° |
| 2026-04-22 10:13 | 26.33392 | 51.62487 | 27850 ft | 387 kts | 292° |
| 2026-04-22 10:14 | 26.34595 | 51.59796 | 27849 ft | 387 kts | 292° |
| 2026-04-22 10:14 | 26.35779 | 51.57145 | 27848 ft | 387 kts | 292° |
| 2026-04-22 10:14 | 26.36976 | 51.54456 | 27849 ft | 387 kts | 292° |
| 2026-04-22 10:14 | 26.38085 | 51.51727 | 27854 ft | 384 kts | 287° |
| 2026-04-22 10:15 | 26.38971 | 51.48926 | 27851 ft | 383 kts | 286° |
| 2026-04-22 10:15 | 26.39865 | 51.46112 | 27853 ft | 383 kts | 287° |
| 2026-04-22 10:15 | 26.40762 | 51.43310 | 27854 ft | 383 kts | 287° |
| 2026-04-22 10:15 | 26.41661 | 51.40503 | 27854 ft | 388 kts | 287° |
| 2026-04-22 10:16 | 26.42568 | 51.37662 | 27855 ft | 397 kts | 287° |
| 2026-04-22 10:16 | 26.43501 | 51.34739 | 27814 ft | 400 kts | 287° |
| 2026-04-22 10:16 | 26.44431 | 51.31833 | 27099 ft | 394 kts | 287° |
| 2026-04-22 10:16 | 26.45129 | 51.28909 | 26054 ft | 386 kts | 275° |
| 2026-04-22 10:17 | 26.45205 | 51.25951 | 25085 ft | 379 kts | 263° |
| 2026-04-22 10:17 | 26.44659 | 51.23106 | 24353 ft | 368 kts | 251° |
| 2026-04-22 10:17 | 26.43730 | 51.20548 | 23927 ft | 353 kts | 248° |
| 2026-04-22 10:17 | 26.42810 | 51.18063 | 23473 ft | 340 kts | 248° |
| 2026-04-22 10:18 | 26.41930 | 51.15665 | 22991 ft | 327 kts | 248° |
| 2026-04-22 10:18 | 26.41088 | 51.13370 | 22548 ft | 316 kts | 248° |
| 2026-04-22 10:18 | 26.40250 | 51.11097 | 22124 ft | 316 kts | 248° |
| 2026-04-22 10:18 | 26.39415 | 51.08838 | 21698 ft | 314 kts | 248° |
| 2026-04-22 10:19 | 26.38582 | 51.06591 | 21274 ft | 313 kts | 248° |
| 2026-04-22 10:19 | 26.37751 | 51.04355 | 20848 ft | 311 kts | 248° |
| 2026-04-22 10:19 | 26.36921 | 51.02129 | 20411 ft | 309 kts | 248° |
| 2026-04-22 10:19 | 26.36105 | 50.99945 | 19983 ft | 307 kts | 248° |
| 2026-04-22 10:20 | 26.35288 | 50.97752 | 19556 ft | 305 kts | 248° |
| 2026-04-22 10:20 | 26.34474 | 50.95572 | 19194 ft | 303 kts | 248° |
| 2026-04-22 10:20 | 26.33667 | 50.93398 | 18852 ft | 302 kts | 250° |
| 2026-04-22 10:20 | 26.33262 | 50.91150 | 18417 ft | 300 kts | 269° |
| 2026-04-22 10:21 | 26.33664 | 50.88868 | 17957 ft | 304 kts | 289° |
| 2026-04-22 10:21 | 26.34860 | 50.86896 | 17490 ft | 313 kts | 311° |
| 2026-04-22 10:21 | 26.36699 | 50.85525 | 17036 ft | 322 kts | 326° |
| 2026-04-22 10:21 | 26.38566 | 50.84188 | 16555 ft | 315 kts | 314° |
| 2026-04-22 10:22 | 26.40015 | 50.82427 | 16113 ft | 304 kts | 299° |
| 2026-04-22 10:22 | 26.41110 | 50.80466 | 15722 ft | 297 kts | 288° |
| 2026-04-22 10:22 | 26.41587 | 50.78284 | 15340 ft | 287 kts | 269° |
| 2026-04-22 10:22 | 26.41345 | 50.76098 | 14964 ft | 283 kts | 251° |
| 2026-04-22 10:23 | 26.40455 | 50.74184 | 14801 ft | 275 kts | 233° |
| 2026-04-22 10:23 | 26.39091 | 50.72723 | 14675 ft | 269 kts | 217° |
| 2026-04-22 10:23 | 26.37379 | 50.72006 | 14560 ft | 271 kts | 188° |
| 2026-04-22 10:23 | 26.35549 | 50.72495 | 14438 ft | 278 kts | 155° |
| 2026-04-22 10:24 | 26.34121 | 50.73989 | 14219 ft | 286 kts | 133° |
| 2026-04-22 10:24 | 26.33042 | 50.75873 | 13992 ft | 290 kts | 125° |
| 2026-04-22 10:24 | 26.32094 | 50.77862 | 13768 ft | 290 kts | 124° |
| 2026-04-22 10:24 | 26.31480 | 50.79178 | 13606 ft | 288 kts | 123° |
| 2026-04-22 10:25 | 26.30853 | 50.81313 | 13387 ft | 295 kts | 97° |
| 2026-04-22 10:25 | 26.31379 | 50.84282 | 13357 ft | 302 kts | 60° |
| 2026-04-22 10:25 | 26.32740 | 50.86022 | 13362 ft | 297 kts | 28° |
| 2026-04-22 10:25 | 26.34612 | 50.86814 | 13363 ft | 283 kts | 357° |
| 2026-04-22 10:26 | 26.35886 | 50.86751 | 13365 ft | 272 kts | 338° |
| 2026-04-22 10:26 | 26.37545 | 50.85922 | 13366 ft | 256 kts | 313° |
| 2026-04-22 10:26 | 26.38679 | 50.84476 | 13365 ft | 242 kts | 290° |
| 2026-04-22 10:26 | 26.39178 | 50.82736 | 13363 ft | 233 kts | 270° |
| 2026-04-22 10:27 | 26.39048 | 50.80965 | 13359 ft | 228 kts | 251° |
| 2026-04-22 10:27 | 26.38359 | 50.79377 | 13360 ft | 228 kts | 237° |
| 2026-04-22 10:27 | 26.37450 | 50.77929 | 13275 ft | 226 kts | 234° |
| 2026-04-22 10:27 | 26.36524 | 50.76539 | 12957 ft | 226 kts | 238° |
| 2026-04-22 10:28 | 26.35883 | 50.74947 | 12627 ft | 226 kts | 255° |
| 2026-04-22 10:28 | 26.35814 | 50.73185 | 12305 ft | 231 kts | 275° |
| 2026-04-22 10:28 | 26.36373 | 50.71482 | 11988 ft | 239 kts | 293° |
| 2026-04-22 10:28 | 26.37480 | 50.70060 | 11660 ft | 252 kts | 321° |
| 2026-04-22 10:29 | 26.39186 | 50.69456 | 11324 ft | 269 kts | 354° |
| 2026-04-22 10:29 | 26.41016 | 50.70001 | 10979 ft | 281 kts | 31° |
| 2026-04-22 10:29 | 26.42294 | 50.71591 | 10633 ft | 282 kts | 69° |
| 2026-04-22 10:29 | 26.42579 | 50.73692 | 10284 ft | 272 kts | 106° |
| 2026-04-22 10:30 | 26.41840 | 50.75547 | 9929 ft | 259 kts | 131° |
| 2026-04-22 10:30 | 26.40834 | 50.77221 | 9560 ft | 260 kts | 130° |
| 2026-04-22 10:30 | 26.39831 | 50.78906 | 9226 ft | 259 kts | 129° |
| 2026-04-22 10:30 | 26.38842 | 50.80584 | 8899 ft | 258 kts | 129° |
| 2026-04-22 10:31 | 26.37745 | 50.82124 | 8575 ft | 247 kts | 148° |
| 2026-04-22 10:31 | 26.36272 | 50.82893 | 8238 ft | 232 kts | 176° |
| 2026-04-22 10:31 | 26.34710 | 50.82784 | 7872 ft | 223 kts | 203° |
| 2026-04-22 10:31 | 26.33408 | 50.81906 | 7496 ft | 218 kts | 227° |
| 2026-04-22 10:32 | 26.32610 | 50.80485 | 7123 ft | 218 kts | 252° |
| 2026-04-22 10:32 | 26.32465 | 50.78822 | 6761 ft | 222 kts | 276° |
| 2026-04-22 10:32 | 26.33020 | 50.77204 | 6407 ft | 228 kts | 297° |
| 2026-04-22 10:32 | 26.33866 | 50.75705 | 6051 ft | 228 kts | 299° |
| 2026-04-22 10:33 | 26.34739 | 50.74226 | 5704 ft | 228 kts | 300° |
| 2026-04-22 10:33 | 26.35616 | 50.72750 | 5336 ft | 228 kts | 301° |
| 2026-04-22 10:33 | 26.36494 | 50.71274 | 5038 ft | 227 kts | 302° |
| 2026-04-22 10:33 | 26.37638 | 50.70051 | 5002 ft | 233 kts | 331° |
| 2026-04-22 10:34 | 26.39216 | 50.69627 | 5009 ft | 238 kts | 2° |
| 2026-04-22 10:34 | 26.40763 | 50.70186 | 5011 ft | 241 kts | 35° |
| 2026-04-22 10:34 | 26.41830 | 50.71606 | 5012 ft | 242 kts | 69° |
| 2026-04-22 10:34 | 26.42062 | 50.73437 | 5013 ft | 240 kts | 102° |
| 2026-04-22 10:35 | 26.41423 | 50.75123 | 5024 ft | 238 kts | 126° |
| 2026-04-22 10:35 | 26.40511 | 50.76671 | 5011 ft | 238 kts | 125° |
| 2026-04-22 10:35 | 26.39599 | 50.78217 | 5012 ft | 239 kts | 125° |
| 2026-04-22 10:35 | 26.38687 | 50.79767 | 5012 ft | 239 kts | 125° |
| 2026-04-22 10:36 | 26.37725 | 50.81267 | 5006 ft | 237 kts | 138° |
| 2026-04-22 10:36 | 26.36328 | 50.82155 | 5011 ft | 232 kts | 170° |
| 2026-04-22 10:36 | 26.34764 | 50.82113 | 5012 ft | 228 kts | 200° |
| 2026-04-22 10:36 | 26.33429 | 50.81195 | 5012 ft | 226 kts | 229° |
| 2026-04-22 10:37 | 26.32697 | 50.79663 | 5007 ft | 226 kts | 259° |
| 2026-04-22 10:37 | 26.33515 | 50.76357 | 5009 ft | 231 kts | 301° |
| 2026-04-22 10:37 | 26.34394 | 50.74852 | 5006 ft | 232 kts | 301° |
| 2026-04-22 10:38 | 26.35272 | 50.73365 | 5009 ft | 232 kts | 301° |
| 2026-04-22 10:38 | 26.36162 | 50.71853 | 5009 ft | 233 kts | 301° |
| 2026-04-22 10:38 | 26.37153 | 50.70418 | 5002 ft | 234 kts | 319° |
| 2026-04-22 10:38 | 26.38599 | 50.69634 | 5011 ft | 238 kts | 349° |
| 2026-04-22 10:39 | 26.40242 | 50.69776 | 5011 ft | 241 kts | 21° |
| 2026-04-22 10:39 | 26.41599 | 50.70851 | 5010 ft | 242 kts | 54° |
| 2026-04-22 10:39 | 26.42253 | 50.72557 | 5014 ft | 240 kts | 86° |
| 2026-04-22 10:39 | 26.42039 | 50.74349 | 5014 ft | 237 kts | 116° |
| 2026-04-22 10:40 | 26.41197 | 50.75918 | 5011 ft | 236 kts | 126° |
| 2026-04-22 10:40 | 26.40296 | 50.77450 | 5010 ft | 236 kts | 126° |
| 2026-04-22 10:40 | 26.39394 | 50.78980 | 5014 ft | 236 kts | 126° |
| 2026-04-22 10:40 | 26.38492 | 50.80511 | 5010 ft | 236 kts | 125° |
| 2026-04-22 10:41 | 26.37430 | 50.81882 | 5011 ft | 232 kts | 148° |
| 2026-04-22 10:41 | 26.35946 | 50.82504 | 5012 ft | 229 kts | 177° |
| 2026-04-22 10:41 | 26.34396 | 50.82234 | 5011 ft | 227 kts | 206° |
| 2026-04-22 10:41 | 26.33172 | 50.81156 | 5013 ft | 226 kts | 234° |
| 2026-04-22 10:42 | 26.32573 | 50.79551 | 5014 ft | 227 kts | 263° |
| 2026-04-22 10:42 | 26.32748 | 50.77825 | 5007 ft | 231 kts | 291° |
| 2026-04-22 10:42 | 26.33549 | 50.76265 | 5009 ft | 233 kts | 301° |
| 2026-04-22 10:42 | 26.34439 | 50.74747 | 5011 ft | 233 kts | 302° |
| 2026-04-22 10:43 | 26.35336 | 50.73236 | 5011 ft | 234 kts | 302° |
| 2026-04-22 10:43 | 26.36233 | 50.71721 | 5009 ft | 234 kts | 301° |
| 2026-04-22 10:43 | 26.37310 | 50.70239 | 5006 ft | 265 kts | 322° |
| 2026-04-22 10:43 | 26.38975 | 50.69311 | 5004 ft | 273 kts | 345° |
| 2026-04-22 10:44 | 26.40803 | 50.69205 | 5008 ft | 256 kts | 10° |
| 2026-04-22 10:44 | 26.42397 | 50.69934 | 5009 ft | 246 kts | 37° |
| 2026-04-22 10:44 | 26.43558 | 50.71308 | 4995 ft | 244 kts | 61° |
| 2026-04-22 10:44 | 26.44122 | 50.73064 | 4871 ft | 239 kts | 85° |
| 2026-04-22 10:45 | 26.44021 | 50.74887 | 4749 ft | 234 kts | 108° |
| 2026-04-22 10:45 | 26.43326 | 50.76472 | 4628 ft | 229 kts | 129° |
| 2026-04-22 10:45 | 26.42160 | 50.77657 | 4296 ft | 227 kts | 148° |
| 2026-04-22 10:45 | 26.40812 | 50.78599 | 3899 ft | 230 kts | 147° |
| 2026-04-22 10:46 | 26.39448 | 50.79561 | 3480 ft | 234 kts | 146° |
| 2026-04-22 10:46 | 26.38066 | 50.80541 | 3113 ft | 236 kts | 145° |
| 2026-04-22 10:46 | 26.36683 | 50.81523 | 3008 ft | 236 kts | 144° |
| 2026-04-22 10:46 | 26.35283 | 50.82519 | 3009 ft | 240 kts | 144° |
| 2026-04-22 10:47 | 26.33888 | 50.83510 | 3011 ft | 241 kts | 145° |
| 2026-04-22 10:47 | 26.32386 | 50.84373 | 3015 ft | 243 kts | 153° |
| 2026-04-22 10:47 | 26.30867 | 50.85188 | 2987 ft | 242 kts | 149° |
| 2026-04-22 10:47 | 26.29453 | 50.86147 | 2708 ft | 236 kts | 140° |
| 2026-04-22 10:48 | 26.28203 | 50.87304 | 2509 ft | 232 kts | 133° |
| 2026-04-22 10:48 | 26.26941 | 50.88457 | 2509 ft | 238 kts | 142° |
| 2026-04-22 10:48 | 26.25392 | 50.89152 | 2512 ft | 245 kts | 171° |
| 2026-04-22 10:48 | 26.23717 | 50.88980 | 2517 ft | 247 kts | 200° |
| 2026-04-22 10:49 | 26.22308 | 50.87943 | 2508 ft | 241 kts | 233° |
| 2026-04-22 10:49 | 26.21521 | 50.86391 | 2507 ft | 223 kts | 253° |
| 2026-04-22 10:49 | 26.20953 | 50.84793 | 2509 ft | 218 kts | 255° |
| 2026-04-22 10:49 | 26.20573 | 50.83200 | 2514 ft | 214 kts | 269° |
| 2026-04-22 10:50 | 26.20434 | 50.81558 | 2508 ft | 212 kts | 272° |
| 2026-04-22 10:50 | 26.20336 | 50.79921 | 2515 ft | 210 kts | 273° |
| 2026-04-22 10:50 | 26.20250 | 50.78295 | 2512 ft | 209 kts | 273° |
| 2026-04-22 10:50 | 26.20168 | 50.76691 | 2511 ft | 211 kts | 273° |
| 2026-04-22 10:51 | 26.20256 | 50.75081 | 2276 ft | 205 kts | 300° |
| 2026-04-22 10:51 | 26.21024 | 50.73831 | 1937 ft | 189 kts | 315° |
| 2026-04-22 10:51 | 26.21731 | 50.72648 | 1635 ft | 176 kts | 311° |
| 2026-04-22 10:51 | 26.22351 | 50.71555 | 1412 ft | 159 kts | 311° |
| 2026-04-22 10:52 | 26.22911 | 50.70578 | 1215 ft | 142 kts | 312° |
| 2026-04-22 10:52 | 26.23431 | 50.69678 | 1028 ft | 135 kts | 313° |
| 2026-04-22 10:52 | 26.23934 | 50.68811 | 861 ft | 131 kts | 313° |
| 2026-04-22 10:52 | 26.24433 | 50.67952 | 695 ft | 135 kts | 311° |
| 2026-04-22 10:53 | 26.24940 | 50.67075 | 529 ft | 133 kts | 311° |
| 2026-04-22 10:53 | 26.25440 | 50.66209 | 370 ft | 132 kts | 311° |
| 2026-04-22 10:53 | 26.25943 | 50.65342 | 182 ft | 134 kts | 310° |
| 2026-04-22 10:53 | 26.26446 | 50.64460 | 26 ft | 130 kts | 308° |
| 2026-04-22 10:54 | 26.26880 | 50.63727 | 18 ft | 95 kts | 302° |
| 2026-04-22 10:54 | 26.27157 | 50.63245 | 15 ft | 57 kts | 302° |
| 2026-04-22 10:54 | 26.27251 | 50.62998 | 16 ft | 29 kts | 272° |
| 2026-04-22 10:54 | 26.27257 | 50.62852 | 18 ft | 0 kts | 273° |
| 2026-04-22 10:56 | 26.27257 | 50.62848 | 18 ft | 3 kts | 265° |
| 2026-04-22 10:56 | 26.27184 | 50.62853 | 20 ft | 19 kts | 133° |
| 2026-04-22 10:56 | 26.27092 | 50.62896 | 22 ft | 14 kts | 206° |
| 2026-04-22 10:56 | 26.27062 | 50.62851 | 22 ft | 7 kts | 276° |
| 2026-04-22 10:57 | 26.27082 | 50.62802 | 21 ft | 8 kts | 301° |
| 2026-04-22 10:57 | 26.27093 | 50.62775 | 21 ft | 3 kts | 270° |
| 2026-04-22 10:57 | 26.27061 | 50.62742 | 20 ft | 7 kts | 213° |
| 2026-04-22 10:57 | 26.27028 | 50.62719 | 20 ft | 0 kts | 212° |
| 2026-04-22 10:58 | 26.27020 | 50.62713 | 22 ft | 2 kts | 212° |
| 2026-04-22 10:58 | 26.27013 | 50.62708 | 23 ft | 0 kts | 212° |